createdAt,value
2022-08-09T00:00:04.831Z,20.72
2022-08-09T00:01:10.729Z,20.73
2022-08-09T00:02:18.259Z,20.71
2022-08-09T00:04:08.569Z,20.66
2022-08-09T00:04:42.483Z,20.59
2022-08-09T00:06:17.347Z,20.52
2022-08-09T00:07:24.369Z,20.50
2022-08-09T00:08:32.112Z,20.52
2022-08-09T00:09:34.465Z,20.46
2022-08-09T00:10:40.103Z,20.46
2022-08-09T00:12:03.185Z,20.45
2022-08-09T00:13:03.159Z,20.38
2022-08-09T00:14:06.740Z,20.33
2022-08-09T00:15:13.866Z,20.32
2022-08-09T00:16:17.646Z,20.35
2022-08-09T00:18:10.503Z,20.31
2022-08-09T00:18:49.843Z,20.20
2022-08-09T00:19:52.563Z,20.19
2022-08-09T00:20:56.081Z,20.21
2022-08-09T00:21:57.545Z,20.19
2022-08-09T00:22:59.332Z,20.12
2022-08-09T00:24:20.979Z,20.07
2022-08-09T00:25:23.549Z,20.02
2022-08-09T00:26:33.605Z,19.92
2022-08-09T00:27:36.102Z,19.94
2022-08-09T00:28:39.546Z,19.99
2022-08-09T00:30:16.746Z,19.93
2022-08-09T00:31:46.737Z,19.88
2022-08-09T00:32:26.941Z,19.83
2022-08-09T00:33:49.217Z,19.69
2022-08-09T00:34:52.284Z,19.66
2022-08-09T00:35:55.106Z,19.42
2022-08-09T00:36:57.452Z,19.17
2022-08-09T00:38:00.568Z,18.83
2022-08-09T00:39:04.641Z,18.40
2022-08-09T00:40:12.391Z,18.27
2022-08-09T00:44:13.331Z,18.52
2022-08-09T00:44:19.390Z,18.24
2022-08-09T00:44:19.577Z,18.18
2022-08-09T00:45:26.959Z,18.71
2022-08-09T00:46:57.627Z,18.57
2022-08-09T00:47:50.301Z,18.19
2022-08-09T00:48:54.545Z,18.15
2022-08-09T00:49:58.877Z,18.04
2022-08-09T00:51:11.774Z,18.15
2022-08-09T00:52:17.358Z,18.34
2022-08-09T00:53:24.072Z,18.51
2022-08-09T00:54:35.355Z,18.46
2022-08-09T00:56:04.166Z,18.26
2022-08-09T00:57:00.523Z,17.81
2022-08-09T00:58:03.291Z,17.60
2022-08-09T00:59:07.475Z,17.57
2022-08-09T01:00:21.970Z,17.69
2022-08-09T01:01:44.862Z,17.86
2022-08-09T01:02:49.917Z,18.04
2022-08-09T01:04:12.885Z,18.14
2022-08-09T01:05:51.985Z,18.27
2022-08-09T01:07:37.811Z,18.19
2022-08-09T01:09:09.620Z,18.16
2022-08-09T01:10:23.135Z,18.18
2022-08-09T01:11:53.172Z,18.09
2022-08-09T01:13:11.715Z,18.04
2022-08-09T01:14:23.818Z,18.04
2022-08-09T01:15:34.468Z,17.98
2022-08-09T01:16:47.521Z,17.65
2022-08-09T01:18:03.639Z,17.65
2022-08-09T01:19:39.601Z,17.57
2022-08-09T01:20:54.456Z,17.70
2022-08-09T01:22:28.201Z,17.57
2022-08-09T01:24:02.902Z,17.27
2022-08-09T01:25:48.978Z,17.42
2022-08-09T01:27:10.520Z,17.60
2022-08-09T01:28:14.483Z,17.67
2022-08-09T01:29:19.620Z,17.76
2022-08-09T01:30:39.995Z,17.73
2022-08-09T01:32:30.802Z,17.72
2022-08-09T01:33:25.821Z,17.76
2022-08-09T01:34:30.202Z,17.82
2022-08-09T01:35:45.239Z,17.85
2022-08-09T01:36:49.276Z,17.88
2022-08-09T01:38:08.403Z,17.99
2022-08-09T01:39:12.782Z,18.01
2022-08-09T01:40:23.220Z,17.95
2022-08-09T01:41:32.857Z,17.96
2022-08-09T01:42:36.715Z,17.97
2022-08-09T01:43:41.935Z,17.84
2022-08-09T01:44:52.526Z,17.80
2022-08-09T01:45:58.006Z,17.81
2022-08-09T01:47:02.933Z,17.78
2022-08-09T01:48:06.164Z,17.65
2022-08-09T01:49:14.703Z,17.49
2022-08-09T01:50:17.830Z,17.50
2022-08-09T01:51:33.002Z,17.57
2022-08-09T01:52:36.067Z,17.58
2022-08-09T01:53:43.762Z,17.70
2022-08-09T01:54:54.102Z,17.63
2022-08-09T01:55:57.046Z,17.63
2022-08-09T01:57:03.938Z,17.67
2022-08-09T01:58:08.150Z,17.67
2022-08-09T01:59:15.996Z,17.83
2022-08-09T02:00:34.484Z,18.01
2022-08-09T02:01:58.176Z,17.98
2022-08-09T02:03:03.166Z,17.94
2022-08-09T02:04:05.418Z,17.82
2022-08-09T02:05:15.813Z,17.79
2022-08-09T02:06:45.487Z,17.79
2022-08-09T02:08:40.326Z,17.88
2022-08-09T02:09:42.110Z,17.99
2022-08-09T02:10:51.138Z,17.92
2022-08-09T02:11:55.489Z,18.00
2022-08-09T02:13:05.067Z,17.84
2022-08-09T02:14:09.362Z,17.79
2022-08-09T02:15:16.739Z,17.80
2022-08-09T02:16:18.860Z,17.82
2022-08-09T02:18:01.445Z,17.80
2022-08-09T02:19:00.411Z,17.73
2022-08-09T02:20:02.383Z,17.71
2022-08-09T02:21:11.702Z,17.68
2022-08-09T02:22:39.585Z,17.49
2022-08-09T02:23:52.323Z,17.48
2022-08-09T02:24:58.594Z,17.44
2022-08-09T02:26:03.236Z,17.41
2022-08-09T02:27:09.322Z,17.35
2022-08-09T02:28:19.455Z,17.24
2022-08-09T02:29:25.154Z,17.28
2022-08-09T02:30:30.559Z,17.30
2022-08-09T02:31:37.516Z,17.44
2022-08-09T02:32:44.748Z,17.50
2022-08-09T02:34:06.335Z,17.54
2022-08-09T02:35:20.917Z,17.47
2022-08-09T02:36:32.302Z,17.65
2022-08-09T02:37:37.071Z,17.69
2022-08-09T02:38:48.864Z,17.73
2022-08-09T02:40:01.637Z,17.69
2022-08-09T02:41:09.654Z,17.64
2022-08-09T02:42:16.796Z,17.60
2022-08-09T02:43:21.198Z,17.63
2022-08-09T02:44:29.543Z,17.59
2022-08-09T02:45:40.813Z,17.57
2022-08-09T02:46:45.449Z,17.62
2022-08-09T02:47:59.599Z,17.55
2022-08-09T02:49:05.709Z,17.49
2022-08-09T02:50:31.286Z,17.30
2022-08-09T02:51:40.003Z,17.27
2022-08-09T02:52:49.679Z,17.23
2022-08-09T02:54:01.210Z,17.17
2022-08-09T02:55:20.841Z,17.14
2022-08-09T02:56:24.214Z,17.07
2022-08-09T02:57:40.469Z,16.99
2022-08-09T02:58:55.200Z,16.98
2022-08-09T03:00:20.409Z,16.80
2022-08-09T03:01:29.386Z,16.82
2022-08-09T03:03:00.040Z,16.77
2022-08-09T03:04:17.450Z,16.84
2022-08-09T03:05:22.270Z,16.81
2022-08-09T03:06:27.549Z,16.83
2022-08-09T03:07:30.957Z,16.77
2022-08-09T03:08:36.192Z,16.72
2022-08-09T03:09:42.993Z,16.75
2022-08-09T03:10:50.974Z,16.81
2022-08-09T03:12:06.672Z,16.78
2022-08-09T03:13:16.077Z,16.77
2022-08-09T03:14:18.756Z,16.76
2022-08-09T03:15:25.512Z,16.73
2022-08-09T03:16:48.568Z,16.72
2022-08-09T03:17:58.034Z,16.70
2022-08-09T03:19:02.303Z,16.71
2022-08-09T03:20:11.253Z,16.72
2022-08-09T03:21:16.508Z,16.75
2022-08-09T03:22:29.958Z,16.74
2022-08-09T03:23:44.386Z,16.75
2022-08-09T03:25:21.898Z,16.76
2022-08-09T03:26:32.077Z,16.81
2022-08-09T03:27:45.309Z,16.81
2022-08-09T03:28:55.028Z,16.82
2022-08-09T03:30:01.480Z,16.81
2022-08-09T03:31:21.107Z,16.83
2022-08-09T03:32:25.348Z,16.83
2022-08-09T03:33:53.301Z,16.85
2022-08-09T03:34:54.168Z,16.85
2022-08-09T03:36:16.070Z,16.88
2022-08-09T03:37:54.319Z,17.03
2022-08-09T03:38:44.737Z,16.98
2022-08-09T03:39:48.495Z,17.03
2022-08-09T03:40:57.926Z,17.18
2022-08-09T03:42:06.123Z,17.18
2022-08-09T03:43:08.381Z,17.09
2022-08-09T03:44:13.338Z,17.16
2022-08-09T03:45:17.052Z,17.13
2022-08-09T03:46:39.128Z,17.03
2022-08-09T03:47:42.086Z,16.98
2022-08-09T03:48:53.134Z,16.92
2022-08-09T03:49:58.267Z,16.91
2022-08-09T03:51:00.858Z,16.86
2022-08-09T03:52:04.226Z,16.81
2022-08-09T03:53:07.193Z,16.85
2022-08-09T03:54:15.039Z,16.83
2022-08-09T03:55:18.293Z,16.86
2022-08-09T03:56:19.899Z,16.80
2022-08-09T03:57:21.566Z,16.73
2022-08-09T03:58:23.113Z,16.82
2022-08-09T03:59:27.626Z,16.77
2022-08-09T04:00:46.052Z,16.76
2022-08-09T04:01:50.918Z,16.84
2022-08-09T04:02:54.174Z,16.86
2022-08-09T04:04:03.889Z,16.95
2022-08-09T04:05:26.671Z,16.94
2022-08-09T04:06:29.668Z,16.82
2022-08-09T04:07:47.309Z,16.79
2022-08-09T04:08:53.613Z,16.91
2022-08-09T04:09:55.693Z,16.82
2022-08-09T04:11:01.765Z,16.78
2022-08-09T04:12:30.402Z,16.85
2022-08-09T04:14:37.327Z,16.81
2022-08-09T04:15:01.770Z,16.56
2022-08-09T04:16:19.559Z,16.56
2022-08-09T04:17:22.485Z,16.58
2022-08-09T04:18:24.874Z,16.65
2022-08-09T04:19:42.681Z,16.60
2022-08-09T04:20:46.180Z,16.59
2022-08-09T04:21:47.597Z,16.77
2022-08-09T04:22:50.275Z,16.82
2022-08-09T04:23:54.447Z,16.76
2022-08-09T04:25:00.164Z,16.72
2022-08-09T04:26:02.989Z,16.63
2022-08-09T04:27:04.475Z,16.63
2022-08-09T04:28:06.296Z,16.62
2022-08-09T04:29:12.117Z,16.58
2022-08-09T04:30:20.957Z,16.57
2022-08-09T04:31:26.345Z,16.63
2022-08-09T04:32:40.136Z,16.67
2022-08-09T04:33:56.756Z,16.72
2022-08-09T04:34:58.726Z,16.68
2022-08-09T04:36:03.037Z,16.67
2022-08-09T04:37:04.671Z,16.63
2022-08-09T04:38:06.339Z,16.67
2022-08-09T04:39:11.155Z,16.63
2022-08-09T04:40:28.781Z,16.65
2022-08-09T04:41:43.573Z,16.69
2022-08-09T04:42:45.731Z,16.64
2022-08-09T04:44:05.319Z,16.64
2022-08-09T04:45:09.923Z,16.61
2022-08-09T04:46:19.277Z,16.59
2022-08-09T04:47:33.303Z,16.58
2022-08-09T04:48:57.739Z,16.60
2022-08-09T04:50:00.076Z,16.61
2022-08-09T04:51:01.841Z,16.52
2022-08-09T04:52:05.247Z,16.57
2022-08-09T04:53:11.569Z,16.61
2022-08-09T04:54:14.818Z,16.56
2022-08-09T04:55:17.438Z,16.56
2022-08-09T04:56:21.039Z,16.52
2022-08-09T04:57:54.091Z,16.50
2022-08-09T04:58:50.802Z,16.54
2022-08-09T04:59:54.503Z,16.54
2022-08-09T05:00:56.301Z,16.58
2022-08-09T05:02:02.698Z,16.53
2022-08-09T05:03:12.929Z,16.56
2022-08-09T05:04:30.859Z,16.58
2022-08-09T05:05:51.891Z,16.65
2022-08-09T05:06:54.349Z,16.64
2022-08-09T05:07:58.130Z,16.67
2022-08-09T05:09:01.099Z,16.68
2022-08-09T05:10:03.885Z,16.73
2022-08-09T05:11:07.526Z,16.76
2022-08-09T05:12:09.615Z,16.82
2022-08-09T05:13:13.093Z,16.87
2022-08-09T05:14:15.955Z,16.94
2022-08-09T05:15:38.309Z,17.00
2022-08-09T05:16:58.270Z,16.97
2022-08-09T05:18:55.194Z,16.99
2022-08-09T05:19:24.416Z,17.13
2022-08-09T05:20:29.549Z,17.18
2022-08-09T05:21:47.440Z,17.23
2022-08-09T05:23:54.268Z,17.28
2022-08-09T05:24:15.708Z,17.36
2022-08-09T05:25:17.514Z,17.41
2022-08-09T05:26:29.717Z,17.44
2022-08-09T05:27:46.659Z,17.52
2022-08-09T05:28:49.616Z,17.56
2022-08-09T05:29:53.719Z,17.62
2022-08-09T05:30:56.085Z,17.66
2022-08-09T05:32:02.759Z,17.69
2022-08-09T05:33:09.519Z,17.70
2022-08-09T05:34:16.981Z,17.76
2022-08-09T05:35:18.822Z,17.85
2022-08-09T05:36:28.815Z,17.85
2022-08-09T05:37:30.464Z,17.90
2022-08-09T05:38:43.533Z,17.97
2022-08-09T05:39:48.482Z,18.02
2022-08-09T05:40:52.008Z,18.08
2022-08-09T05:41:53.512Z,18.16
2022-08-09T05:42:56.810Z,18.21
2022-08-09T05:43:59.122Z,18.28
2022-08-09T05:45:01.080Z,18.33
2022-08-09T05:46:03.713Z,18.36
2022-08-09T05:47:05.752Z,18.41
2022-08-09T05:48:07.324Z,18.50
2022-08-09T05:49:19.118Z,18.52
2022-08-09T05:50:50.541Z,18.62
2022-08-09T05:51:53.470Z,18.61
2022-08-09T05:52:55.910Z,18.66
2022-08-09T05:53:58.184Z,18.77
2022-08-09T05:55:07.012Z,18.81
2022-08-09T05:56:09.555Z,18.86
2022-08-09T05:57:19.194Z,18.95
2022-08-09T05:58:20.938Z,19.05
2022-08-09T05:59:22.859Z,19.20
2022-08-09T06:00:30.298Z,19.21
2022-08-09T06:01:34.134Z,19.19
2022-08-09T06:02:46.379Z,19.18
2022-08-09T06:03:58.089Z,19.08
2022-08-09T06:05:00.053Z,19.09
2022-08-09T06:06:06.403Z,19.13
2022-08-09T06:07:08.038Z,19.18
2022-08-09T06:08:11.012Z,19.21
2022-08-09T06:09:40.890Z,19.25
2022-08-09T06:10:40.987Z,19.18
2022-08-09T06:11:57.047Z,19.25
2022-08-09T06:13:11.675Z,19.24
2022-08-09T06:14:14.421Z,19.23
2022-08-09T06:15:17.260Z,19.23
2022-08-09T06:16:19.048Z,19.23
2022-08-09T06:17:20.505Z,19.28
2022-08-09T06:18:25.361Z,19.38
2022-08-09T06:19:27.467Z,19.42
2022-08-09T06:20:30.189Z,19.46
2022-08-09T06:21:32.182Z,19.49
2022-08-09T06:22:34.118Z,19.55
2022-08-09T06:23:57.627Z,19.59
2022-08-09T06:24:57.945Z,19.74
2022-08-09T06:26:00.356Z,19.78
2022-08-09T06:27:02.994Z,19.84
2022-08-09T06:28:05.330Z,19.84
2022-08-09T06:29:08.192Z,19.87
2022-08-09T06:30:17.011Z,19.86
2022-08-09T06:31:19.755Z,19.87
2022-08-09T06:33:13.363Z,19.88
2022-08-09T06:33:54.627Z,19.94
2022-08-09T06:34:56.064Z,20.07
2022-08-09T06:35:58.593Z,20.04
2022-08-09T06:37:00.601Z,20.07
2022-08-09T06:38:05.382Z,20.14
2022-08-09T06:39:11.652Z,20.21
2022-08-09T06:40:17.767Z,20.30
2022-08-09T06:42:08.186Z,20.40
2022-08-09T06:42:47.656Z,20.38
2022-08-09T06:43:49.137Z,20.40
2022-08-09T06:44:54.334Z,20.49
2022-08-09T06:46:05.490Z,20.57
2022-08-09T06:47:09.555Z,20.73
2022-08-09T06:48:12.195Z,20.77
2022-08-09T06:49:29.166Z,20.75
2022-08-09T06:50:39.995Z,20.81
2022-08-09T06:51:42.857Z,20.90
2022-08-09T06:52:48.767Z,20.96
2022-08-09T06:53:50.558Z,21.04
2022-08-09T06:54:54.666Z,21.06
2022-08-09T06:55:56.435Z,21.13
2022-08-09T06:56:57.878Z,21.24
2022-08-09T06:58:03.842Z,21.31
2022-08-09T07:00:49.653Z,21.36
2022-08-09T07:00:54.357Z,21.27
2022-08-09T07:01:53.647Z,21.27
2022-08-09T07:02:59.595Z,21.40
2022-08-09T07:04:03.953Z,21.47
2022-08-09T07:05:06.769Z,21.55
2022-08-09T07:06:08.621Z,21.68
2022-08-09T07:07:11.963Z,21.85
2022-08-09T07:08:13.861Z,21.81
2022-08-09T07:09:55.371Z,21.83
2022-08-09T07:10:36.902Z,21.93
2022-08-09T07:11:52.075Z,22.07
2022-08-09T07:12:57.491Z,22.22
2022-08-09T07:14:04.503Z,22.33
2022-08-09T07:16:38.788Z,22.39
2022-08-09T07:16:41.196Z,22.47
2022-08-09T07:17:52.677Z,22.49
2022-08-09T07:18:57.890Z,22.62
2022-08-09T07:19:59.365Z,22.67
2022-08-09T07:21:01.221Z,22.77
2022-08-09T07:22:04.125Z,22.66
2022-08-09T07:23:18.263Z,22.64
2022-08-09T07:24:20.789Z,22.63
2022-08-09T07:25:22.314Z,22.67
2022-08-09T07:26:25.426Z,22.78
2022-08-09T07:27:33.990Z,22.99
2022-08-09T07:29:08.179Z,23.13
2022-08-09T07:30:07.855Z,23.25
2022-08-09T07:31:10.608Z,23.35
2022-08-09T07:32:12.074Z,23.41
2022-08-09T07:33:16.720Z,23.49
2022-08-09T07:34:20.712Z,23.52
2022-08-09T07:35:23.287Z,23.62
2022-08-09T07:36:27.959Z,23.55
2022-08-09T07:37:31.106Z,23.47
2022-08-09T07:38:51.532Z,23.66
2022-08-09T07:39:58.171Z,23.68
2022-08-09T07:41:12.671Z,23.78
2022-08-09T07:42:14.889Z,23.87
2022-08-09T07:43:16.759Z,23.93
2022-08-09T07:44:18.570Z,24.00
2022-08-09T07:45:37.944Z,24.00
2022-08-09T07:46:41.574Z,24.14
2022-08-09T07:48:00.944Z,24.23
2022-08-09T07:49:06.028Z,24.36
2022-08-09T07:50:09.899Z,24.42
2022-08-09T07:52:06.047Z,24.45
2022-08-09T07:52:33.555Z,24.22
2022-08-09T07:54:06.701Z,24.16
2022-08-09T07:55:00.739Z,24.29
2022-08-09T07:56:06.327Z,24.39
2022-08-09T07:57:11.614Z,24.51
2022-08-09T07:58:14.235Z,24.61
2022-08-09T07:59:25.589Z,24.69
2022-08-09T08:00:37.495Z,24.76
2022-08-09T08:01:58.085Z,24.87
2022-08-09T08:03:01.584Z,24.88
2022-08-09T08:04:10.503Z,25.02
2022-08-09T08:05:17.996Z,25.12
2022-08-09T08:06:21.154Z,25.13
2022-08-09T08:08:43.231Z,25.23
2022-08-09T08:09:01.457Z,25.20
2022-08-09T08:10:10.424Z,25.29
2022-08-09T08:12:08.815Z,25.33
2022-08-09T08:12:34.768Z,25.32
2022-08-09T08:13:45.085Z,25.33
2022-08-09T08:14:58.535Z,25.42
2022-08-09T08:16:01.123Z,25.26
2022-08-09T08:17:08.744Z,25.32
2022-08-09T08:18:14.346Z,25.28
2022-08-09T08:19:17.426Z,25.28
2022-08-09T08:20:29.336Z,25.39
2022-08-09T08:21:32.858Z,25.43
2022-08-09T08:22:34.536Z,25.42
2022-08-09T08:23:38.231Z,25.46
2022-08-09T08:24:47.191Z,25.58
2022-08-09T08:26:06.459Z,25.71
2022-08-09T08:27:16.555Z,25.87
2022-08-09T08:28:32.053Z,25.99
2022-08-09T08:29:39.634Z,25.88
2022-08-09T08:30:50.428Z,26.03
2022-08-09T08:32:03.690Z,25.90
2022-08-09T08:33:07.308Z,25.60
2022-08-09T08:34:14.043Z,25.41
2022-08-09T08:35:18.178Z,25.44
2022-08-09T08:36:28.387Z,25.50
2022-08-09T08:37:40.732Z,25.53
2022-08-09T08:38:44.337Z,25.60
2022-08-09T08:39:47.097Z,25.76
2022-08-09T08:40:49.644Z,25.83
2022-08-09T08:41:52.602Z,25.84
2022-08-09T08:42:54.104Z,25.87
2022-08-09T08:44:02.744Z,25.74
2022-08-09T08:45:11.974Z,25.76
2022-08-09T08:46:33.112Z,26.00
2022-08-09T08:47:44.774Z,26.03
2022-08-09T08:48:51.769Z,26.09
2022-08-09T08:49:57.111Z,25.88
2022-08-09T08:51:06.207Z,25.77
2022-08-09T08:52:10.313Z,25.92
2022-08-09T08:53:16.102Z,26.04
2022-08-09T08:54:29.985Z,26.33
2022-08-09T08:55:32.260Z,26.41
2022-08-09T08:56:38.803Z,26.32
2022-08-09T08:57:42.449Z,26.21
2022-08-09T08:58:46.425Z,26.02
2022-08-09T08:59:54.088Z,25.95
2022-08-09T09:01:02.945Z,25.98
2022-08-09T09:02:20.973Z,26.02
2022-08-09T09:03:37.658Z,25.97
2022-08-09T09:04:52.528Z,25.98
2022-08-09T09:05:58.521Z,25.99
2022-08-09T09:07:10.018Z,25.74
2022-08-09T09:08:30.296Z,25.86
2022-08-09T09:09:58.058Z,25.95
2022-08-09T09:10:56.486Z,25.95
2022-08-09T09:11:59.898Z,26.08
2022-08-09T09:13:09.500Z,26.04
2022-08-09T09:14:22.205Z,26.12
2022-08-09T09:15:28.344Z,26.23
2022-08-09T09:16:34.343Z,26.29
2022-08-09T09:17:51.750Z,26.19
2022-08-09T09:19:10.711Z,26.15
2022-08-09T09:20:17.785Z,26.36
2022-08-09T09:21:26.029Z,26.15
2022-08-09T09:22:29.479Z,26.18
2022-08-09T09:23:58.175Z,26.18
2022-08-09T09:26:01.911Z,25.99
2022-08-09T09:26:26.109Z,25.91
2022-08-09T09:28:03.740Z,25.90
2022-08-09T09:29:04.507Z,25.88
2022-08-09T09:30:40.185Z,25.96
2022-08-09T09:32:03.806Z,26.01
2022-08-09T09:33:15.395Z,26.01
2022-08-09T09:34:18.989Z,25.88
2022-08-09T09:35:20.451Z,25.83
2022-08-09T09:36:22.406Z,25.74
2022-08-09T09:37:31.931Z,25.61
2022-08-09T09:38:52.377Z,25.66
2022-08-09T09:39:57.183Z,25.80
2022-08-09T09:41:01.143Z,26.00
2022-08-09T09:42:08.919Z,26.03
2022-08-09T09:43:20.835Z,26.00
2022-08-09T09:44:34.135Z,26.07
2022-08-09T09:46:41.776Z,25.84
2022-08-09T09:47:16.920Z,25.71
2022-08-09T09:48:23.230Z,25.70
2022-08-09T09:49:56.219Z,25.69
2022-08-09T09:50:51.260Z,25.76
2022-08-09T09:52:02.054Z,25.70
2022-08-09T09:53:03.913Z,25.76
2022-08-09T09:54:21.214Z,25.84
2022-08-09T09:55:28.532Z,25.89
2022-08-09T09:58:00.346Z,25.91
2022-08-09T09:58:18.739Z,25.91
2022-08-09T09:59:35.428Z,25.97
2022-08-09T10:00:53.984Z,26.01
2022-08-09T10:02:00.727Z,26.03
2022-08-09T10:03:11.598Z,26.08
2022-08-09T10:04:22.844Z,26.11
2022-08-09T10:06:03.910Z,26.23
2022-08-09T10:06:54.687Z,26.36
2022-08-09T10:08:26.142Z,26.39
2022-08-09T10:09:27.484Z,26.28
2022-08-09T10:10:31.353Z,26.07
2022-08-09T10:12:00.344Z,25.94
2022-08-09T10:12:56.065Z,26.07
2022-08-09T10:13:58.022Z,26.12
2022-08-09T10:15:17.667Z,26.08
2022-08-09T10:16:57.179Z,25.97
2022-08-09T10:17:56.211Z,25.83
2022-08-09T10:19:00.770Z,25.86
2022-08-09T10:20:35.682Z,25.90
2022-08-09T10:21:51.096Z,26.14
2022-08-09T10:23:00.438Z,26.31
2022-08-09T10:24:04.491Z,26.25
2022-08-09T10:25:12.438Z,26.24
2022-08-09T10:26:16.292Z,26.26
2022-08-09T10:27:24.942Z,26.28
2022-08-09T10:28:37.435Z,26.29
2022-08-09T10:30:43.771Z,26.28
2022-08-09T10:32:42.166Z,26.32
2022-08-09T10:34:09.775Z,26.28
2022-08-09T10:35:07.592Z,26.27
2022-08-09T10:36:13.502Z,26.29
2022-08-09T10:37:15.226Z,26.18
2022-08-09T10:38:39.652Z,26.04
2022-08-09T10:39:49.327Z,26.13
2022-08-09T10:40:51.902Z,26.28
2022-08-09T10:41:53.547Z,26.46
2022-08-09T10:42:56.614Z,26.49
2022-08-09T10:44:01.976Z,26.45
2022-08-09T10:45:10.577Z,26.37
2022-08-09T10:46:54.139Z,26.11
2022-08-09T10:48:20.462Z,26.21
2022-08-09T10:49:49.862Z,26.45
2022-08-09T10:51:09.964Z,26.74
2022-08-09T10:52:36.840Z,27.00
2022-08-09T10:53:54.878Z,26.83
2022-08-09T10:55:02.486Z,26.92
2022-08-09T10:56:26.885Z,26.87
2022-08-09T10:57:36.358Z,26.91
2022-08-09T10:58:39.684Z,26.86
2022-08-09T10:59:57.990Z,26.92
2022-08-09T11:03:02.463Z,26.95
2022-08-09T11:03:14.429Z,26.94
2022-08-09T11:04:27.951Z,26.94
2022-08-09T11:05:32.695Z,26.90
2022-08-09T11:06:37.672Z,26.99
2022-08-09T11:07:57.495Z,27.02
2022-08-09T11:09:15.465Z,27.02
2022-08-09T11:10:47.208Z,26.99
2022-08-09T11:11:58.339Z,27.00
2022-08-09T11:13:53.646Z,27.20
2022-08-09T11:14:44.935Z,27.27
2022-08-09T11:15:50.866Z,27.26
2022-08-09T11:17:12.426Z,27.31
2022-08-09T11:18:44.955Z,27.26
2022-08-09T11:20:07.985Z,27.24
2022-08-09T11:21:55.293Z,27.21
2022-08-09T11:23:10.037Z,27.26
2022-08-09T11:24:13.196Z,27.18
2022-08-09T11:25:18.590Z,27.13
2022-08-09T11:26:40.773Z,27.16
2022-08-09T11:28:08.332Z,26.98
2022-08-09T11:30:04.302Z,26.94
2022-08-09T11:31:43.294Z,26.96
2022-08-09T11:32:47.836Z,26.86
2022-08-09T11:33:56.679Z,26.81
2022-08-09T11:34:59.712Z,26.82
2022-08-09T11:36:01.525Z,26.82
2022-08-09T11:37:07.353Z,26.91
2022-08-09T11:38:22.142Z,26.97
2022-08-09T11:39:24.294Z,27.05
2022-08-09T11:40:32.020Z,27.09
2022-08-09T11:41:37.927Z,27.09
2022-08-09T11:42:53.956Z,26.97
2022-08-09T11:43:56.281Z,27.02
2022-08-09T11:44:59.947Z,27.03
2022-08-09T11:46:05.522Z,27.12
2022-08-09T11:47:10.935Z,27.25
2022-08-09T11:48:25.306Z,27.30
2022-08-09T11:50:54.886Z,27.25
2022-08-09T11:53:02.252Z,27.21
2022-08-09T11:53:21.400Z,27.22
2022-08-09T11:54:35.533Z,27.24
2022-08-09T11:55:53.108Z,27.23
2022-08-09T11:57:59.744Z,27.16
2022-08-09T11:59:00.200Z,27.04
2022-08-09T12:00:13.052Z,26.93
2022-08-09T12:02:16.221Z,26.95
2022-08-09T12:02:42.417Z,27.08
2022-08-09T12:03:57.340Z,27.08
2022-08-09T12:04:59.835Z,27.04
2022-08-09T12:06:09.905Z,27.20
2022-08-09T12:07:14.124Z,27.05
2022-08-09T12:08:21.560Z,27.15
2022-08-09T12:09:33.703Z,27.22
2022-08-09T12:10:39.998Z,27.28
2022-08-09T12:12:02.673Z,27.31
2022-08-09T12:14:07.823Z,27.38
2022-08-09T12:14:41.017Z,27.63
2022-08-09T12:16:03.156Z,27.35
2022-08-09T12:17:34.597Z,27.32
2022-08-09T12:18:33.408Z,27.11
2022-08-09T12:19:35.576Z,27.24
2022-08-09T12:20:43.612Z,27.42
2022-08-09T12:21:51.629Z,27.52
2022-08-09T12:23:02.196Z,27.53
2022-08-09T12:24:09.416Z,27.41
2022-08-09T12:25:12.421Z,27.62
2022-08-09T12:26:19.550Z,27.67
2022-08-09T12:29:10.809Z,27.86
2022-08-09T12:29:13.080Z,27.91
2022-08-09T12:30:36.913Z,27.73
2022-08-09T12:31:59.333Z,27.61
2022-08-09T12:33:02.578Z,27.90
2022-08-09T12:34:04.134Z,28.01
2022-08-09T12:35:12.624Z,27.98
2022-08-09T12:36:31.665Z,28.03
2022-08-09T12:37:50.214Z,27.97
2022-08-09T12:38:54.930Z,28.08
2022-08-09T12:40:11.694Z,28.19
2022-08-09T12:41:13.647Z,28.15
2022-08-09T12:42:16.412Z,28.27
2022-08-09T12:44:04.393Z,28.29
2022-08-09T12:44:46.493Z,28.39
2022-08-09T12:46:00.106Z,28.46
2022-08-09T12:47:02.551Z,28.68
2022-08-09T12:48:20.170Z,28.84
2022-08-09T12:49:32.027Z,28.88
2022-08-09T12:50:38.346Z,28.80
2022-08-09T12:52:00.288Z,28.78
2022-08-09T12:53:17.593Z,28.76
2022-08-09T12:54:21.240Z,28.87
2022-08-09T12:56:14.817Z,28.88
2022-08-09T12:56:54.667Z,28.34
2022-08-09T12:57:56.445Z,28.33
2022-08-09T12:59:05.598Z,28.51
2022-08-09T13:00:32.286Z,28.57
2022-08-09T13:01:36.117Z,28.77
2022-08-09T13:02:53.483Z,28.93
2022-08-09T13:04:01.757Z,29.17
2022-08-09T13:05:04.176Z,29.32
2022-08-09T13:06:14.719Z,29.06
2022-08-09T13:07:19.788Z,28.89
2022-08-09T13:08:40.080Z,29.07
2022-08-09T13:09:52.861Z,29.17
2022-08-09T13:11:01.859Z,28.75
2022-08-09T13:12:15.130Z,28.88
2022-08-09T13:13:37.965Z,28.61
2022-08-09T13:15:09.742Z,28.87
2022-08-09T13:16:15.701Z,28.93
2022-08-09T13:17:21.941Z,28.94
2022-08-09T13:18:53.494Z,28.74
2022-08-09T13:20:10.278Z,29.00
2022-08-09T13:22:38.316Z,29.23
2022-08-09T13:23:01.496Z,29.38
2022-08-09T13:24:52.533Z,29.22
2022-08-09T13:25:54.423Z,29.23
2022-08-09T13:26:58.818Z,29.32
2022-08-09T13:28:09.634Z,29.26
2022-08-09T13:29:20.644Z,29.12
2022-08-09T13:30:51.049Z,28.69
2022-08-09T13:32:19.338Z,28.70
2022-08-09T13:33:52.160Z,28.99
2022-08-09T13:34:48.828Z,29.11
2022-08-09T13:36:24.761Z,29.36
2022-08-09T13:37:12.586Z,29.59
2022-08-09T13:38:54.639Z,29.70
2022-08-09T13:41:52.561Z,29.22
2022-08-09T13:41:56.661Z,28.88
2022-08-09T13:42:31.944Z,28.64
2022-08-09T13:43:39.572Z,28.73
2022-08-09T13:44:43.072Z,28.85
2022-08-09T13:46:42.757Z,28.94
2022-08-09T13:47:25.272Z,28.86
2022-08-09T13:48:29.991Z,28.73
2022-08-09T13:49:37.706Z,28.86
2022-08-09T13:50:39.854Z,28.67
2022-08-09T13:51:41.944Z,28.70
2022-08-09T13:53:00.712Z,28.88
2022-08-09T13:54:02.777Z,29.07
2022-08-09T13:55:07.247Z,29.28
2022-08-09T13:56:11.915Z,29.56
2022-08-09T13:57:14.449Z,29.76
2022-08-09T13:58:35.535Z,29.92
2022-08-09T13:59:41.717Z,30.05
2022-08-09T14:00:46.707Z,29.99
2022-08-09T14:02:01.256Z,29.73
2022-08-09T14:04:00.960Z,29.88
2022-08-09T14:04:26.536Z,29.67
2022-08-09T14:05:58.478Z,29.45
2022-08-09T14:06:57.691Z,29.50
2022-08-09T14:08:03.937Z,29.56
2022-08-09T14:09:06.327Z,29.56
2022-08-09T14:10:17.421Z,29.59
2022-08-09T14:11:33.601Z,29.47
2022-08-09T14:12:49.106Z,29.33
2022-08-09T14:14:23.122Z,29.05
2022-08-09T14:16:07.010Z,28.86
2022-08-09T14:16:33.528Z,28.60
2022-08-09T14:18:16.738Z,28.65
2022-08-09T14:18:58.466Z,28.53
2022-08-09T14:20:01.940Z,28.63
2022-08-09T14:21:06.018Z,28.74
2022-08-09T14:22:07.573Z,28.88
2022-08-09T14:23:10.895Z,28.91
2022-08-09T14:24:32.321Z,28.81
2022-08-09T14:25:42.621Z,29.06
2022-08-09T14:26:46.800Z,29.15
2022-08-09T14:27:58.433Z,29.44
2022-08-09T14:30:18.457Z,29.53
2022-08-09T14:30:41.561Z,29.80
2022-08-09T14:31:52.392Z,29.69
2022-08-09T14:32:55.821Z,29.56
2022-08-09T14:33:59.705Z,29.62
2022-08-09T14:35:06.942Z,29.59
2022-08-09T14:36:19.641Z,29.48
2022-08-09T14:37:28.573Z,29.50
2022-08-09T14:38:42.476Z,29.66
2022-08-09T14:39:47.847Z,29.76
2022-08-09T14:41:01.501Z,29.51
2022-08-09T14:42:12.437Z,29.52
2022-08-09T14:43:15.869Z,29.46
2022-08-09T14:44:32.517Z,29.31
2022-08-09T14:46:45.983Z,29.50
2022-08-09T14:47:27.431Z,29.77
2022-08-09T14:48:26.720Z,29.94
2022-08-09T14:49:28.909Z,29.91
2022-08-09T14:50:36.946Z,29.71
2022-08-09T14:51:42.121Z,29.69
2022-08-09T14:52:47.846Z,29.61
2022-08-09T14:53:52.677Z,29.84
2022-08-09T14:54:54.615Z,29.98
2022-08-09T14:55:56.248Z,29.75
2022-08-09T14:56:59.271Z,29.56
2022-08-09T14:58:03.405Z,29.50
2022-08-09T14:59:05.141Z,29.58
2022-08-09T15:00:11.194Z,29.59
2022-08-09T15:01:13.529Z,29.47
2022-08-09T15:02:17.652Z,29.48
2022-08-09T15:03:22.532Z,29.51
2022-08-09T15:04:24.027Z,29.65
2022-08-09T15:05:26.438Z,29.56
2022-08-09T15:06:28.662Z,29.64
2022-08-09T15:07:31.483Z,29.76
2022-08-09T15:08:37.028Z,29.91
2022-08-09T15:10:04.123Z,30.07
2022-08-09T15:11:05.016Z,29.99
2022-08-09T15:12:09.559Z,29.82
2022-08-09T15:13:13.310Z,29.91